createdAt,value
2023-01-05T00:01:50.845Z,4.15
2023-01-05T00:04:19.141Z,3.88
2023-01-05T00:06:46.676Z,4.85
2023-01-05T00:09:18.006Z,4.43
2023-01-05T00:12:03.863Z,4.38
2023-01-05T00:14:52.071Z,4.75
2023-01-05T00:17:42.427Z,4.00
2023-01-05T00:20:39.494Z,4.40
2023-01-05T00:23:08.988Z,3.92
2023-01-05T00:25:41.958Z,4.50
2023-01-05T00:28:09.506Z,4.80
2023-01-05T00:30:42.677Z,4.22
2023-01-05T00:33:16.853Z,4.57
2023-01-05T00:35:44.643Z,3.97
2023-01-05T00:38:12.253Z,4.30
2023-01-05T00:40:40.181Z,4.72
2023-01-05T00:43:07.488Z,4.45
2023-01-05T00:45:35.229Z,4.28
2023-01-05T00:48:02.543Z,3.72
2023-01-05T00:50:30.131Z,4.00
2023-01-05T00:52:57.387Z,4.22
2023-01-05T00:55:24.531Z,4.20
2023-01-05T00:57:52.012Z,3.58
2023-01-05T01:00:20.065Z,4.00
2023-01-05T01:02:51.821Z,3.58
2023-01-05T01:05:19.808Z,3.88
2023-01-05T01:07:48.772Z,3.97
2023-01-05T01:10:16.341Z,3.50
2023-01-05T01:12:43.851Z,3.53
2023-01-05T01:15:11.479Z,3.35
2023-01-05T01:17:39.063Z,3.05
2023-01-05T01:20:07.343Z,3.03
2023-01-05T01:22:34.890Z,2.83
2023-01-05T01:25:02.090Z,3.00
2023-01-05T01:27:32.182Z,3.28
2023-01-05T01:29:59.433Z,3.05
2023-01-05T01:32:26.986Z,3.78
2023-01-05T01:34:55.360Z,3.97
2023-01-05T01:37:22.910Z,3.80
2023-01-05T01:39:50.134Z,3.80
2023-01-05T01:42:17.721Z,4.25
2023-01-05T01:44:51.721Z,4.30
2023-01-05T01:47:32.621Z,4.45
2023-01-05T01:50:08.561Z,4.82
2023-01-05T01:52:38.113Z,3.80
2023-01-05T01:55:07.151Z,3.50
2023-01-05T01:57:37.196Z,3.00
2023-01-05T02:00:08.831Z,3.28
2023-01-05T02:02:36.590Z,2.85
2023-01-05T02:05:11.232Z,2.78
2023-01-05T02:07:47.363Z,2.80
2023-01-05T02:10:32.433Z,3.22
2023-01-05T02:13:31.711Z,2.67
2023-01-05T02:16:05.141Z,2.70
2023-01-05T02:19:24.826Z,2.15
2023-01-05T02:22:18.867Z,1.90
2023-01-05T02:25:23.952Z,2.20
2023-01-05T02:28:37.034Z,2.10
2023-01-05T02:31:25.226Z,2.15
2023-01-05T02:34:48.787Z,2.10
2023-01-05T02:37:30.647Z,2.10
2023-01-05T02:40:08.578Z,1.67
2023-01-05T02:42:39.636Z,2.15
2023-01-05T02:45:09.285Z,1.88
2023-01-05T02:47:44.245Z,2.30
2023-01-05T02:50:20.290Z,2.40
2023-01-05T02:53:24.440Z,2.47
2023-01-05T02:56:12.752Z,2.33
2023-01-05T02:59:08.503Z,2.00
2023-01-05T03:01:59.070Z,2.10
2023-01-05T03:04:40.844Z,2.58
2023-01-05T03:07:14.699Z,2.35
2023-01-05T03:09:45.516Z,2.30
2023-01-05T03:12:52.085Z,2.30
2023-01-05T03:15:39.212Z,2.30
2023-01-05T03:18:20.431Z,2.08
2023-01-05T03:20:52.447Z,2.25
2023-01-05T03:23:40.740Z,2.17
2023-01-05T03:26:31.086Z,2.05
2023-01-05T03:29:22.005Z,2.00
2023-01-05T03:32:19.898Z,1.98
2023-01-05T03:35:11.582Z,2.28
2023-01-05T03:38:18.527Z,1.90
2023-01-05T03:40:47.379Z,2.08
2023-01-05T03:43:15.383Z,2.20
2023-01-05T03:45:53.197Z,1.80
2023-01-05T03:48:22.673Z,1.95
2023-01-05T03:50:50.434Z,1.92
2023-01-05T03:53:18.487Z,2.05
2023-01-05T03:55:46.193Z,2.03
2023-01-05T03:58:13.779Z,1.90
2023-01-05T04:00:41.150Z,1.80
2023-01-05T04:03:10.608Z,1.73
2023-01-05T04:05:38.211Z,2.00
2023-01-05T04:08:06.575Z,1.80
2023-01-05T04:10:34.070Z,1.63
2023-01-05T04:13:01.672Z,2.15
2023-01-05T04:15:29.218Z,1.85
2023-01-05T04:17:56.885Z,2.13
2023-01-05T04:20:24.138Z,2.38
2023-01-05T04:22:51.686Z,2.53
2023-01-05T04:25:18.990Z,2.40
2023-01-05T04:27:46.532Z,2.38
2023-01-05T04:30:13.864Z,2.65
2023-01-05T04:32:41.449Z,2.63
2023-01-05T04:35:11.533Z,2.55
2023-01-05T04:37:39.851Z,2.05
2023-01-05T04:40:07.874Z,2.30
2023-01-05T04:42:35.414Z,1.60
2023-01-05T04:45:02.680Z,1.92
2023-01-05T04:47:30.219Z,2.15
2023-01-05T04:49:57.488Z,1.48
2023-01-05T04:52:25.036Z,1.88
2023-01-05T04:54:52.368Z,1.98
2023-01-05T04:57:19.939Z,2.47
2023-01-05T04:59:47.248Z,2.50
2023-01-05T05:02:15.254Z,2.33
2023-01-05T05:04:42.667Z,2.17
2023-01-05T05:07:10.742Z,2.00
2023-01-05T05:09:38.066Z,2.50
2023-01-05T05:12:05.924Z,2.25
2023-01-05T05:14:33.273Z,2.97
2023-01-05T05:17:00.925Z,3.00
2023-01-05T05:19:28.236Z,2.65
2023-01-05T05:21:55.821Z,2.78
2023-01-05T05:24:24.521Z,3.17
2023-01-05T05:26:52.201Z,3.28
2023-01-05T05:29:19.483Z,3.10
2023-01-05T05:31:47.222Z,3.05
2023-01-05T05:34:14.908Z,2.85
2023-01-05T05:36:42.754Z,3.38
2023-01-05T05:39:13.322Z,3.00
2023-01-05T05:41:41.155Z,2.70
2023-01-05T05:44:09.254Z,2.78
2023-01-05T05:46:36.912Z,2.90
2023-01-05T05:49:04.903Z,2.90
2023-01-05T05:51:32.949Z,2.85
2023-01-05T05:54:00.678Z,3.75
2023-01-05T05:56:28.364Z,2.30
2023-01-05T05:59:01.047Z,2.63
2023-01-05T06:01:29.984Z,1.95
2023-01-05T06:03:57.475Z,2.33
2023-01-05T06:06:25.043Z,2.33
2023-01-05T06:08:52.501Z,2.70
2023-01-05T06:11:20.148Z,2.85
2023-01-05T06:13:48.934Z,2.90
2023-01-05T06:16:16.948Z,4.43
2023-01-05T06:18:44.216Z,6.22
2023-01-05T06:21:11.828Z,6.57
2023-01-05T06:23:39.132Z,6.45
2023-01-05T06:26:06.987Z,6.30
2023-01-05T06:28:34.290Z,5.80
2023-01-05T06:31:01.974Z,5.03
2023-01-05T06:33:29.260Z,6.78
2023-01-05T06:35:58.811Z,6.38
2023-01-05T06:38:26.584Z,5.80
2023-01-05T06:40:54.808Z,5.18
2023-01-05T06:43:22.231Z,4.13
2023-01-05T06:45:49.947Z,4.10
2023-01-05T06:48:17.298Z,4.75
2023-01-05T06:50:45.017Z,3.80
2023-01-05T06:53:12.316Z,2.85
2023-01-05T06:55:40.548Z,2.92
2023-01-05T06:58:07.844Z,3.40
2023-01-05T07:00:35.506Z,3.92
2023-01-05T07:03:03.259Z,2.92
2023-01-05T07:05:31.481Z,3.08
2023-01-05T07:07:58.800Z,2.63
2023-01-05T07:10:26.411Z,2.65
2023-01-05T07:12:53.671Z,2.75
2023-01-05T07:15:21.264Z,2.83
2023-01-05T07:17:48.611Z,2.80
2023-01-05T07:20:17.429Z,2.67
2023-01-05T07:22:44.719Z,1.90
2023-01-05T07:25:12.523Z,2.28
2023-01-05T07:27:39.776Z,2.20
2023-01-05T07:30:08.468Z,2.00
2023-01-05T07:32:35.855Z,1.60
2023-01-05T07:35:03.880Z,1.30
2023-01-05T07:37:31.245Z,1.60
2023-01-05T07:39:58.791Z,2.17
2023-01-05T07:42:26.302Z,2.15
2023-01-05T07:44:53.990Z,2.60
2023-01-05T07:47:21.424Z,2.33
2023-01-05T07:49:49.053Z,2.40
2023-01-05T07:52:17.854Z,2.05
2023-01-05T07:54:45.587Z,1.75
2023-01-05T07:57:12.896Z,1.73
2023-01-05T07:59:40.405Z,2.58
2023-01-05T08:02:09.835Z,2.83
2023-01-05T08:04:37.583Z,2.85
2023-01-05T08:07:11.423Z,2.17
2023-01-05T08:09:58.157Z,2.35
2023-01-05T08:12:25.833Z,1.90
2023-01-05T08:14:53.458Z,2.20
2023-01-05T08:17:20.830Z,2.05
2023-01-05T08:19:48.486Z,1.67
2023-01-05T08:22:15.862Z,2.30
2023-01-05T08:24:43.432Z,2.38
2023-01-05T08:27:10.799Z,2.20
2023-01-05T08:29:38.430Z,1.92
2023-01-05T08:32:06.034Z,2.10
2023-01-05T08:34:35.006Z,2.00
2023-01-05T08:37:02.539Z,2.95
2023-01-05T08:39:30.169Z,2.13
2023-01-05T08:42:02.353Z,2.20
2023-01-05T08:44:30.692Z,2.17
2023-01-05T08:46:58.200Z,2.40
2023-01-05T08:49:25.900Z,2.70
2023-01-05T08:51:53.338Z,2.70
2023-01-05T08:54:20.957Z,3.13
2023-01-05T08:56:50.669Z,2.75
2023-01-05T08:59:18.760Z,3.33
2023-01-05T09:01:46.375Z,3.50
2023-01-05T09:04:14.303Z,2.97
2023-01-05T09:06:41.790Z,2.40
2023-01-05T09:09:10.490Z,2.50
2023-01-05T09:11:38.225Z,3.20
2023-01-05T09:14:05.836Z,2.80
2023-01-05T09:17:05.283Z,2.72
2023-01-05T09:19:23.070Z,2.45
2023-01-05T09:21:50.895Z,2.70
2023-01-05T09:24:19.334Z,1.88
2023-01-05T09:26:47.090Z,2.30
2023-01-05T09:29:14.913Z,1.40
2023-01-05T09:31:42.598Z,2.40
2023-01-05T09:34:11.224Z,2.20
2023-01-05T09:36:41.735Z,2.50
2023-01-05T09:39:15.471Z,1.63
2023-01-05T09:42:00.980Z,1.70
2023-01-05T09:44:42.371Z,1.63
2023-01-05T09:47:43.135Z,1.67
2023-01-05T09:50:33.569Z,1.58
2023-01-05T09:53:01.290Z,1.52
2023-01-05T09:55:32.743Z,1.75
2023-01-05T09:58:16.572Z,1.80
2023-01-05T10:01:07.625Z,1.67
2023-01-05T10:06:35.810Z,1.60
2023-01-05T10:09:05.547Z,1.70
2023-01-05T10:12:15.557Z,1.30
2023-01-05T10:14:53.449Z,1.40
2023-01-05T10:17:41.293Z,1.50
2023-01-05T10:20:50.630Z,1.70
2023-01-05T10:23:46.370Z,1.95
2023-01-05T10:26:24.973Z,1.70
2023-01-05T10:29:18.223Z,2.30
2023-01-05T10:32:22.037Z,2.30
2023-01-05T10:35:00.764Z,1.90
2023-01-05T10:37:41.258Z,1.88
2023-01-05T10:40:23.066Z,2.05
2023-01-05T10:43:21.584Z,1.83
2023-01-05T10:46:19.890Z,1.90
2023-01-05T10:48:40.334Z,1.90
2023-01-05T10:51:10.973Z,2.30
2023-01-05T10:53:42.633Z,2.30
2023-01-05T10:56:10.499Z,2.65
2023-01-05T10:58:41.013Z,3.13
2023-01-05T11:01:31.008Z,3.25
2023-01-05T11:04:34.422Z,2.97
2023-01-05T11:07:06.841Z,2.83
2023-01-05T11:09:41.438Z,2.60
2023-01-05T11:12:22.686Z,2.72
2023-01-05T11:14:59.084Z,2.22
2023-01-05T11:17:30.009Z,2.17
2023-01-05T11:19:58.681Z,2.13
2023-01-05T11:22:44.540Z,2.50
2023-01-05T11:25:33.959Z,2.20
2023-01-05T11:28:17.941Z,2.15
2023-01-05T11:31:05.977Z,2.03
2023-01-05T11:33:40.340Z,1.63
2023-01-05T11:36:13.073Z,1.95
2023-01-05T11:38:41.060Z,2.42
2023-01-05T11:41:12.851Z,2.38
2023-01-05T11:43:40.502Z,1.75
2023-01-05T11:46:09.338Z,2.20
2023-01-05T11:48:36.964Z,2.00
2023-01-05T11:51:04.905Z,1.63
2023-01-05T11:53:35.517Z,1.80
2023-01-05T11:56:22.192Z,1.65
2023-01-05T11:58:54.660Z,2.00
2023-01-05T12:02:01.274Z,1.92
2023-01-05T12:04:52.551Z,1.48
2023-01-05T12:07:37.206Z,1.20
2023-01-05T12:10:16.587Z,2.08
2023-01-05T12:13:12.774Z,1.88
2023-01-05T12:16:04.345Z,1.90
2023-01-05T12:19:19.778Z,1.80
2023-01-05T12:22:12.999Z,1.52
2023-01-05T12:25:22.280Z,1.52
2023-01-05T12:28:40.989Z,1.60
2023-01-05T12:34:00.368Z,2.00
2023-01-05T12:35:22.615Z,1.80
2023-01-05T12:38:01.596Z,1.67
2023-01-05T12:41:03.914Z,1.98
2023-01-05T12:43:34.189Z,1.65
2023-01-05T12:46:43.259Z,1.92
2023-01-05T12:50:06.986Z,1.33
2023-01-05T12:53:15.502Z,2.00
2023-01-05T12:55:50.406Z,2.20
2023-01-05T12:58:38.340Z,1.77
2023-01-05T13:01:19.906Z,1.60
2023-01-05T13:04:34.326Z,1.63
2023-01-05T13:07:15.647Z,1.98
2023-01-05T13:09:48.268Z,2.15
2023-01-05T13:12:16.390Z,1.95
2023-01-05T13:15:14.140Z,1.75
2023-01-05T13:17:50.719Z,1.33
2023-01-05T13:20:47.890Z,1.30
2023-01-05T13:23:25.980Z,1.85
2023-01-05T13:26:17.836Z,2.50
2023-01-05T13:28:57.975Z,2.00
2023-01-05T13:31:37.403Z,2.70
2023-01-05T13:34:45.281Z,1.88
2023-01-05T13:37:55.573Z,1.85
2023-01-05T13:40:39.985Z,2.50
2023-01-05T13:43:44.398Z,2.03
2023-01-05T13:46:35.235Z,3.97
2023-01-05T13:49:17.281Z,5.32
2023-01-05T13:52:19.005Z,4.82
2023-01-05T13:55:01.575Z,4.43
2023-01-05T13:57:41.411Z,5.22
2023-01-05T14:00:26.335Z,4.90
2023-01-05T14:03:13.356Z,4.68
2023-01-05T14:05:54.335Z,4.90
2023-01-05T14:08:28.118Z,3.70
2023-01-05T14:11:25.453Z,2.33
2023-01-05T14:14:08.653Z,1.80
2023-01-05T14:16:36.070Z,1.92
2023-01-05T14:19:23.060Z,1.63
2023-01-05T14:21:50.362Z,1.77
2023-01-05T14:27:23.782Z,2.80
2023-01-05T14:29:55.520Z,3.13
2023-01-05T14:32:34.757Z,3.15
2023-01-05T14:35:28.837Z,3.50
2023-01-05T14:38:25.148Z,3.63
2023-01-05T14:40:58.486Z,4.00
2023-01-05T14:43:34.389Z,4.28
2023-01-05T14:46:17.995Z,3.92
2023-01-05T14:49:02.324Z,4.68
2023-01-05T14:51:33.291Z,5.22
2023-01-05T14:54:04.776Z,6.07
2023-01-05T14:56:37.704Z,7.22
2023-01-05T14:59:26.018Z,7.97
2023-01-05T15:02:02.902Z,5.85
2023-01-05T15:04:39.890Z,5.20
2023-01-05T15:07:34.727Z,4.20
2023-01-05T15:11:01.888Z,4.80
2023-01-05T15:14:35.273Z,5.68
2023-01-05T15:17:11.371Z,5.05
2023-01-05T15:20:01.628Z,3.42
2023-01-05T15:23:05.661Z,3.50
2023-01-05T15:26:10.288Z,2.85
2023-01-05T15:29:17.126Z,2.97
2023-01-05T15:31:55.236Z,2.40
2023-01-05T15:34:42.900Z,2.75
2023-01-05T15:37:33.616Z,2.58
2023-01-05T15:40:04.412Z,2.25
2023-01-05T15:42:44.657Z,2.17
2023-01-05T15:45:37.273Z,2.50
2023-01-05T15:48:14.808Z,3.20
2023-01-05T15:50:55.076Z,3.47
2023-01-05T15:53:33.086Z,3.28
2023-01-05T15:56:01.695Z,3.30
2023-01-05T15:58:33.004Z,3.05
2023-01-05T16:01:15.448Z,3.38
2023-01-05T16:03:46.552Z,3.60
2023-01-05T16:06:28.196Z,3.45
2023-01-05T16:09:07.515Z,4.35
2023-01-05T16:11:42.763Z,4.15
2023-01-05T16:14:29.122Z,4.22
2023-01-05T16:17:08.252Z,4.25
2023-01-05T16:19:43.879Z,4.90
2023-01-05T16:22:17.143Z,4.30
2023-01-05T16:25:12.426Z,3.53
2023-01-05T16:27:44.450Z,3.20
2023-01-05T16:30:38.049Z,3.33
2023-01-05T16:33:05.610Z,3.03
2023-01-05T16:35:47.018Z,3.30
2023-01-05T16:38:22.121Z,3.50
2023-01-05T16:40:49.852Z,3.80
2023-01-05T16:43:43.895Z,4.80
2023-01-05T16:46:20.296Z,4.18
2023-01-05T16:48:54.032Z,3.90
2023-01-05T16:51:25.162Z,3.75
2023-01-05T16:54:13.491Z,3.70
2023-01-05T16:57:01.563Z,4.15
2023-01-05T16:59:52.895Z,4.03
2023-01-05T17:02:49.203Z,3.65
2023-01-05T17:05:26.204Z,3.90
2023-01-05T17:08:07.879Z,3.33
2023-01-05T17:10:35.366Z,2.90
2023-01-05T17:13:08.263Z,3.10
2023-01-05T17:15:36.775Z,3.30
2023-01-05T17:18:34.381Z,3.20
2023-01-05T17:21:06.141Z,3.33
2023-01-05T17:23:47.320Z,3.70
2023-01-05T17:26:45.467Z,2.25
2023-01-05T17:29:29.895Z,3.00
2023-01-05T17:31:58.243Z,3.75
2023-01-05T17:34:26.125Z,3.15
2023-01-05T17:36:59.754Z,3.20
2023-01-05T17:39:27.466Z,3.10
2023-01-05T17:42:14.791Z,2.95
2023-01-05T17:44:42.477Z,2.38
2023-01-05T17:47:09.925Z,2.53
2023-01-05T17:49:38.489Z,2.85
2023-01-05T17:52:05.954Z,3.22
2023-01-05T17:54:33.691Z,3.50
2023-01-05T17:57:01.136Z,2.38
2023-01-05T17:59:28.905Z,2.60
2023-01-05T18:01:56.502Z,2.50
2023-01-05T18:04:25.490Z,2.92
2023-01-05T18:06:54.762Z,3.13
2023-01-05T18:11:51.773Z,3.08
2023-01-05T18:14:20.564Z,2.78
2023-01-05T18:16:47.896Z,2.40
2023-01-05T18:19:15.809Z,2.42
2023-01-05T18:24:15.682Z,1.90
2023-01-05T18:26:43.074Z,1.70
2023-01-05T18:29:10.728Z,2.38
2023-01-05T18:31:40.185Z,2.63
2023-01-05T18:34:09.838Z,1.63
2023-01-05T18:36:37.309Z,1.63
2023-01-05T18:39:05.274Z,2.10
2023-01-05T18:41:32.805Z,2.58
2023-01-05T18:44:00.446Z,2.70
2023-01-05T18:46:30.481Z,1.98
2023-01-05T18:48:58.312Z,2.47
2023-01-05T18:51:25.751Z,1.73
2023-01-05T18:53:53.971Z,1.88
2023-01-05T18:56:21.313Z,1.42
2023-01-05T18:58:49.316Z,1.83
2023-01-05T19:01:20.227Z,2.08
2023-01-05T19:03:50.643Z,1.80
2023-01-05T19:06:25.484Z,1.70
2023-01-05T19:08:53.236Z,1.88
2023-01-05T19:11:28.170Z,1.95
2023-01-05T19:13:59.259Z,1.77
2023-01-05T19:16:31.565Z,1.63
2023-01-05T19:19:05.212Z,1.67
2023-01-05T19:21:36.277Z,1.70
2023-01-05T19:24:07.063Z,1.80
2023-01-05T19:26:37.081Z,1.58
2023-01-05T19:29:06.581Z,1.55
2023-01-05T19:31:34.558Z,1.90
2023-01-05T19:34:02.520Z,2.28
2023-01-05T19:36:35.000Z,2.30
2023-01-05T19:39:16.405Z,2.08
2023-01-05T19:41:47.211Z,2.17
2023-01-05T19:44:18.539Z,1.70
2023-01-05T19:46:49.329Z,1.60
2023-01-05T19:49:21.003Z,1.73
2023-01-05T19:51:48.857Z,2.20
2023-01-05T19:54:17.348Z,1.63
2023-01-05T19:56:46.192Z,2.03
2023-01-05T19:59:33.452Z,2.40
2023-01-05T20:02:05.792Z,2.05
2023-01-05T20:04:34.325Z,2.42
2023-01-05T20:07:03.958Z,2.30
2023-01-05T20:09:32.356Z,2.50
2023-01-05T20:12:13.235Z,3.10
2023-01-05T20:14:43.096Z,2.90
2023-01-05T20:17:12.831Z,3.38
2023-01-05T20:19:41.100Z,3.03
2023-01-05T20:22:14.268Z,2.97
2023-01-05T20:24:43.451Z,3.25
2023-01-05T20:27:15.079Z,3.20
2023-01-05T20:29:42.718Z,3.30
2023-01-05T20:32:18.270Z,3.30
2023-01-05T20:35:00.354Z,3.08
2023-01-05T20:37:31.085Z,3.72
2023-01-05T20:40:01.776Z,4.00
2023-01-05T20:42:30.846Z,4.25
2023-01-05T20:44:58.798Z,4.55
2023-01-05T20:47:26.180Z,4.00
2023-01-05T20:49:54.700Z,4.57
2023-01-05T20:52:22.124Z,4.30
2023-01-05T20:54:50.050Z,3.47
2023-01-05T20:57:17.597Z,3.70
2023-01-05T20:59:45.456Z,3.75
2023-01-05T21:02:23.089Z,3.67
2023-01-05T21:04:53.545Z,4.03
2023-01-05T21:07:22.059Z,3.97
2023-01-05T21:09:51.755Z,3.67
2023-01-05T21:12:20.051Z,4.03
2023-01-05T21:14:47.825Z,3.88
2023-01-05T21:17:15.377Z,5.30
2023-01-05T21:19:44.309Z,4.40
2023-01-05T21:22:11.734Z,5.47
2023-01-05T21:24:39.608Z,6.18
2023-01-05T21:27:07.126Z,5.32
2023-01-05T21:29:34.975Z,5.18
2023-01-05T21:32:02.578Z,5.45
2023-01-05T21:34:30.342Z,5.88
2023-01-05T21:36:57.671Z,4.72
2023-01-05T21:39:28.572Z,4.75
2023-01-05T21:42:14.643Z,5.43
2023-01-05T21:44:42.356Z,4.78
2023-01-05T21:47:09.908Z,4.28
2023-01-05T21:49:37.546Z,4.07
2023-01-05T21:52:24.542Z,3.65
2023-01-05T21:55:11.135Z,4.03
2023-01-05T21:57:38.642Z,4.75
2023-01-05T22:00:07.681Z,5.55
2023-01-05T22:02:35.112Z,4.38
2023-01-05T22:05:03.353Z,3.40
2023-01-05T22:07:30.729Z,3.70
2023-01-05T22:09:58.388Z,4.18
2023-01-05T22:12:25.855Z,4.68
2023-01-05T22:14:53.435Z,4.70
2023-01-05T22:17:20.861Z,5.65
2023-01-05T22:19:48.522Z,4.70
2023-01-05T22:22:15.875Z,5.47
2023-01-05T22:24:43.478Z,4.47
2023-01-05T22:27:10.954Z,3.65
2023-01-05T22:29:38.652Z,3.22
2023-01-05T22:32:06.835Z,4.15
2023-01-05T22:34:34.578Z,3.30
2023-01-05T22:37:02.426Z,3.38
2023-01-05T22:39:30.133Z,4.00
2023-01-05T22:41:57.432Z,3.22
2023-01-05T22:44:25.742Z,3.50
2023-01-05T22:46:53.423Z,3.22
2023-01-05T22:49:20.989Z,3.00
2023-01-05T22:51:48.272Z,2.90
2023-01-05T22:54:15.885Z,3.30
2023-01-05T22:56:43.189Z,3.60
2023-01-05T22:59:10.764Z,3.97
2023-01-05T23:01:43.648Z,3.55
2023-01-05T23:04:12.411Z,4.25
2023-01-05T23:06:40.746Z,3.30
2023-01-05T23:09:14.421Z,3.25
2023-01-05T23:11:43.022Z,3.47
2023-01-05T23:14:12.619Z,3.42
2023-01-05T23:16:40.117Z,2.92
2023-01-05T23:19:08.867Z,2.55
2023-01-05T23:21:37.051Z,2.20
2023-01-05T23:24:05.332Z,2.10
2023-01-05T23:26:32.668Z,2.35
2023-01-05T23:29:01.053Z,2.22
2023-01-05T23:31:28.751Z,1.90
2023-01-05T23:33:57.921Z,1.80
2023-01-05T23:36:25.818Z,1.70
2023-01-05T23:38:53.345Z,1.58
2023-01-05T23:41:20.795Z,1.50
2023-01-05T23:43:48.465Z,1.75
2023-01-05T23:46:20.696Z,1.35
2023-01-05T23:48:51.648Z,1.63
2023-01-05T23:51:19.159Z,1.25
2023-01-05T23:53:50.506Z,1.40
2023-01-05T23:56:25.133Z,1.20
2023-01-05T23:59:05.327Z,1.77
